Time;durP1;ratioP1;P1;durP2;ratioP2;P2;SDS_P1;SDS_P2;PMS_P1;PMS_P2;Temp;Humidity;BMP_temperature;BMP_pressure;BME280_temperature;BME280_humidity;BME280_pressure;Samples;Min_cycle;Max_cycle;Signal;HPM_P1;HPM_P2
2021/09/16 00:01:15;;;;;;;0.40;0.30;;;16.40;99.90;;;;;;5014406;28;20387;-75
2021/09/16 00:03:40;;;;;;;0.40;0.30;;;16.50;99.90;;;;;;5031895;28;20836;-75
2021/09/16 00:06:06;;;;;;;0.40;0.30;;;16.50;99.90;;;;;;5032214;28;20405;-75
2021/09/16 00:08:31;;;;;;;0.40;0.30;;;16.50;99.90;;;;;;5013712;28;20432;-75
2021/09/16 00:10:57;;;;;;;0.40;0.30;;;16.50;99.90;;;;;;5032128;28;20367;-75
2021/09/16 00:13:23;;;;;;;0.40;0.20;;;16.50;99.90;;;;;;5031058;28;20410;-75
2021/09/16 00:15:48;;;;;;;0.40;0.20;;;16.60;99.90;;;;;;5031979;28;20405;-75
2021/09/16 00:18:14;;;;;;;0.40;0.20;;;16.60;99.90;;;;;;5031853;28;20378;-75
2021/09/16 00:20:40;;;;;;;0.40;0.30;;;16.60;99.90;;;;;;5031254;28;20378;-75
2021/09/16 00:23:05;;;;;;;0.40;0.30;;;16.60;99.90;;;;;;5031960;28;20719;-75
2021/09/16 00:25:31;;;;;;;0.40;0.20;;;16.60;99.90;;;;;;5031132;28;20835;-75
2021/09/16 00:27:57;;;;;;;0.40;0.30;;;16.60;99.90;;;;;;5032132;28;20827;-75
2021/09/16 00:30:23;;;;;;;0.40;0.20;;;16.50;99.90;;;;;;5030914;28;20383;-74
2021/09/16 00:32:48;;;;;;;0.40;0.30;;;16.70;99.90;;;;;;5031930;28;20681;-75
2021/09/16 00:35:14;;;;;;;0.40;0.20;;;16.70;99.90;;;;;;5031312;28;20379;-74
2021/09/16 00:37:39;;;;;;;0.40;0.30;;;16.60;99.90;;;;;;5030967;28;20383;-75
2021/09/16 00:40:07;;;;;;;0.40;0.20;;;16.50;99.90;;;;;;5031546;28;20708;-75
2021/09/16 00:42:32;;;;;;;0.40;0.30;;;16.50;99.90;;;;;;5030655;28;20424;-75
2021/09/16 00:44:58;;;;;;;0.40;0.20;;;16.60;99.90;;;;;;5031277;28;20411;-76
2021/09/16 00:47:24;;;;;;;0.40;0.20;;;16.50;99.90;;;;;;5030746;28;20386;-75
2021/09/16 00:49:49;;;;;;;0.40;0.20;;;16.50;99.90;;;;;;5030601;28;20855;-75
2021/09/16 00:52:17;;;;;;;0.40;0.20;;;16.50;99.90;;;;;;5031312;28;20375;-75
2021/09/16 00:54:44;;;;;;;0.40;0.20;;;16.50;99.90;;;;;;5030918;28;20383;-75
2021/09/16 00:57:12;;;;;;;0.40;0.20;;;16.50;99.90;;;;;;5031287;28;20378;-75
2021/09/16 00:59:38;;;;;;;0.40;0.30;;;16.60;99.90;;;;;;5030635;28;20391;-75
2021/09/16 01:02:04;;;;;;;0.40;0.28;;;16.50;99.90;;;;;;5031221;28;20382;-75
2021/09/16 01:04:31;;;;;;;0.40;0.30;;;16.50;99.90;;;;;;5030265;28;20462;-75
2021/09/16 01:06:58;;;;;;;0.40;0.30;;;16.40;99.90;;;;;;5026552;28;20395;-75
2021/09/16 01:09:25;;;;;;;0.40;0.20;;;16.40;99.90;;;;;;5021245;28;20437;-75
2021/09/16 01:11:51;;;;;;;0.40;0.20;;;16.50;99.90;;;;;;5031186;28;20391;-75
2021/09/16 01:14:22;;;;;;;0.40;0.30;;;16.50;99.90;;;;;;5030981;28;20407;-75
2021/09/16 01:16:47;;;;;;;0.40;0.20;;;16.50;99.90;;;;;;5030858;28;20390;-75
2021/09/16 01:19:13;;;;;;;0.40;0.20;;;16.40;99.90;;;;;;5031259;28;20403;-75
2021/09/16 01:21:39;;;;;;;0.40;0.30;;;16.50;99.90;;;;;;5030328;28;20557;-75
2021/09/16 01:24:04;;;;;;;0.40;0.20;;;16.50;99.90;;;;;;5031181;28;20458;-74
2021/09/16 01:26:30;;;;;;;0.40;0.28;;;16.50;99.90;;;;;;5030193;28;20763;-75
2021/09/16 01:28:57;;;;;;;0.40;0.30;;;16.40;99.90;;;;;;5030924;28;20839;-75
2021/09/16 01:31:44;;;;;;;0.40;0.30;;;16.50;99.90;;;;;;5030338;28;20449;-78
2021/09/16 01:34:12;;;;;;;0.40;0.20;;;16.50;99.90;;;;;;5030880;28;20437;-75
2021/09/16 01:36:39;;;;;;;0.40;0.20;;;16.50;99.90;;;;;;5030175;28;20438;-75
2021/09/16 01:39:07;;;;;;;0.40;0.20;;;16.50;99.90;;;;;;5030609;28;20386;-75
2021/09/16 01:41:33;;;;;;;0.40;0.20;;;16.60;99.90;;;;;;5030164;28;20589;-75
2021/09/16 01:43:59;;;;;;;0.40;0.30;;;16.60;99.90;;;;;;5030785;28;20474;-75
2021/09/16 01:46:25;;;;;;;0.40;0.20;;;16.60;99.90;;;;;;5029738;28;20407;-76
2021/09/16 01:48:50;;;;;;;0.40;0.20;;;16.60;99.90;;;;;;5030793;28;20703;-74
2021/09/16 01:51:16;;;;;;;0.40;0.30;;;16.50;99.90;;;;;;5030354;28;20719;-74
2021/09/16 01:53:43;;;;;;;0.40;0.20;;;16.60;99.90;;;;;;5030000;28;20393;-74
2021/09/16 01:56:09;;;;;;;0.40;0.20;;;16.60;99.90;;;;;;5030565;28;20391;-74
2021/09/16 01:58:36;;;;;;;0.40;0.20;;;16.60;99.90;;;;;;5030353;28;20473;-75
2021/09/16 02:01:03;;;;;;;0.40;0.20;;;16.50;99.90;;;;;;5033612;28;20478;-74
2021/09/16 02:03:28;;;;;;;0.40;0.20;;;16.50;99.90;;;;;;5034255;28;20390;-75
2021/09/16 02:05:54;;;;;;;0.40;0.20;;;16.50;99.90;;;;;;5034300;28;20395;-75
2021/09/16 02:08:19;;;;;;;0.40;0.27;;;16.50;99.90;;;;;;5034609;28;20390;-74
2021/09/16 02:10:45;;;;;;;0.40;0.30;;;16.60;99.90;;;;;;5033777;28;20758;-74
2021/09/16 02:13:11;;;;;;;0.40;0.30;;;16.50;99.90;;;;;;5034023;28;20879;-74
2021/09/16 02:15:36;;;;;;;0.40;0.20;;;16.50;99.90;;;;;;5033826;28;20440;-74
2021/09/16 02:18:02;;;;;;;0.40;0.20;;;16.50;99.90;;;;;;5034202;28;20382;-74
2021/09/16 02:20:28;;;;;;;0.40;0.30;;;16.50;99.90;;;;;;5033368;28;20766;-74
2021/09/16 02:22:53;;;;;;;0.40;0.20;;;16.50;99.90;;;;;;5016318;28;20391;-74
2021/09/16 02:25:19;;;;;;;0.40;0.20;;;16.60;99.90;;;;;;5034286;28;20407;-74
2021/09/16 02:27:45;;;;;;;0.60;0.60;;;16.70;99.90;;;;;;5033429;28;20387;-74
2021/09/16 02:30:11;;;;;;;0.40;0.20;;;16.60;99.90;;;;;;5034005;28;20386;-74
2021/09/16 02:32:37;;;;;;;0.40;0.30;;;16.70;99.90;;;;;;5033255;28;20375;-74
2021/09/16 02:35:03;;;;;;;0.40;0.20;;;16.60;99.90;;;;;;5034101;28;20386;-74
2021/09/16 02:37:29;;;;;;;0.40;0.30;;;16.60;99.90;;;;;;5015404;28;20395;-75
2021/09/16 02:39:54;;;;;;;0.40;0.30;;;16.60;99.90;;;;;;5033951;28;20378;-75
2021/09/16 02:42:20;;;;;;;0.40;0.20;;;16.60;99.90;;;;;;5033712;28;20394;-75
2021/09/16 02:44:45;;;;;;;0.40;0.20;;;16.60;99.90;;;;;;5033112;28;20390;-75
2021/09/16 02:47:11;;;;;;;0.40;0.20;;;16.60;99.90;;;;;;5033700;28;20379;-75
2021/09/16 02:49:37;;;;;;;0.40;0.30;;;16.70;99.90;;;;;;5033096;28;20433;-75
2021/09/16 02:52:03;;;;;;;0.40;0.30;;;16.70;99.90;;;;;;5015894;28;20536;-75
2021/09/16 02:54:28;;;;;;;0.40;0.20;;;16.60;99.90;;;;;;5033059;28;20445;-76
2021/09/16 02:56:54;;;;;;;0.40;0.20;;;16.60;99.90;;;;;;5033448;28;20380;-75
2021/09/16 02:59:19;;;;;;;0.40;0.20;;;16.70;99.90;;;;;;5033610;28;20373;-75
2021/09/16 03:01:45;;;;;;;0.40;0.20;;;16.70;99.90;;;;;;5032502;28;20467;-75
2021/09/16 03:04:11;;;;;;;0.40;0.20;;;16.60;99.90;;;;;;5033587;28;20437;-75
2021/09/16 03:06:36;;;;;;;0.40;0.20;;;16.70;99.90;;;;;;5026467;28;20410;-75
2021/09/16 03:09:02;;;;;;;0.40;0.28;;;16.70;99.90;;;;;;5031428;28;20407;-75
2021/09/16 03:11:28;;;;;;;0.40;0.20;;;16.70;99.90;;;;;;5024157;28;20391;-75
2021/09/16 03:13:54;;;;;;;0.40;0.20;;;16.70;99.90;;;;;;5033032;28;20407;-75
2021/09/16 03:16:20;;;;;;;0.40;0.20;;;16.70;99.90;;;;;;5033151;28;20778;-75
2021/09/16 03:18:45;;;;;;;0.40;0.20;;;16.70;99.90;;;;;;5032416;28;20470;-75
2021/09/16 03:21:11;;;;;;;0.40;0.30;;;16.70;99.90;;;;;;5033062;28;20371;-75
2021/09/16 03:23:37;;;;;;;0.40;0.20;;;16.80;99.90;;;;;;5032693;28;20704;-75
2021/09/16 03:26:03;;;;;;;0.40;0.20;;;16.70;99.90;;;;;;5033033;28;20600;-75
2021/09/16 03:28:28;;;;;;;0.40;0.30;;;16.70;99.90;;;;;;5032909;28;20418;-75
2021/09/16 03:30:54;;;;;;;0.40;0.20;;;16.80;99.90;;;;;;5032270;28;20393;-75
2021/09/16 03:33:20;;;;;;;0.40;0.30;;;16.70;99.90;;;;;;5033063;28;20405;-75
2021/09/16 03:35:45;;;;;;;0.40;0.30;;;16.80;99.90;;;;;;5032233;28;20429;-75
2021/09/16 03:38:11;;;;;;;0.40;0.30;;;16.90;99.90;;;;;;5032340;28;20719;-76
2021/09/16 03:40:37;;;;;;;0.40;0.20;;;16.80;99.90;;;;;;5032178;28;20938;-77
2021/09/16 03:43:02;;;;;;;0.40;0.20;;;16.90;99.90;;;;;;5032699;28;20395;-77
2021/09/16 03:45:28;;;;;;;0.40;0.20;;;16.90;99.90;;;;;;5032576;28;20871;-77
2021/09/16 03:47:54;;;;;;;0.40;0.20;;;16.90;99.90;;;;;;5031922;28;20417;-77
2021/09/16 03:50:20;;;;;;;0.40;0.20;;;17.00;99.90;;;;;;5032763;28;20790;-77
2021/09/16 03:52:45;;;;;;;0.40;0.20;;;16.90;99.90;;;;;;5031657;28;20375;-76
2021/09/16 03:55:11;;;;;;;0.40;0.20;;;17.00;99.90;;;;;;5032077;28;20943;-76
2021/09/16 03:57:37;;;;;;;0.40;0.20;;;16.90;99.90;;;;;;5013995;28;20866;-76
2021/09/16 04:00:06;;;;;;;0.40;0.30;;;16.90;99.90;;;;;;5014477;28;20855;-76
2021/09/16 04:02:31;;;;;;;0.40;0.20;;;16.90;99.90;;;;;;5032430;28;20375;-80
2021/09/16 04:04:57;;;;;;;0.40;0.20;;;17.00;99.90;;;;;;5015182;28;20839;-76
2021/09/16 04:07:23;;;;;;;0.40;0.20;;;17.00;99.90;;;;;;5032510;28;20843;-76
2021/09/16 04:09:48;;;;;;;0.40;0.30;;;16.90;99.90;;;;;;5031993;28;20378;-77
2021/09/16 04:12:14;;;;;;;0.40;0.20;;;17.00;99.90;;;;;;5032579;28;20391;-77
2021/09/16 04:14:39;;;;;;;0.40;0.30;;;17.00;99.90;;;;;;5031999;28;20398;-77
2021/09/16 04:17:05;;;;;;;0.40;0.20;;;17.00;99.90;;;;;;5032400;28;20398;-76
2021/09/16 04:19:31;;;;;;;0.40;0.20;;;17.00;99.90;;;;;;5032349;28;20375;-76
2021/09/16 04:21:56;;;;;;;0.40;0.20;;;17.10;99.90;;;;;;5031779;28;20963;-76
2021/09/16 04:24:22;;;;;;;0.40;0.30;;;17.10;99.90;;;;;;5032087;28;20371;-76
2021/09/16 04:26:48;;;;;;;0.40;0.20;;;17.00;99.90;;;;;;5031585;28;20402;-77
2021/09/16 04:29:13;;;;;;;0.40;0.20;;;17.10;99.90;;;;;;5032385;28;20719;-77
2021/09/16 04:31:40;;;;;;;0.40;0.30;;;17.10;99.90;;;;;;5031576;28;20406;-77
2021/09/16 04:34:06;;;;;;;0.40;0.30;;;17.00;99.90;;;;;;5032194;28;20391;-76
2021/09/16 04:36:31;;;;;;;0.40;0.20;;;17.00;99.90;;;;;;5032252;28;20869;-76
2021/09/16 04:38:57;;;;;;;0.40;0.30;;;17.00;99.90;;;;;;5031830;28;20379;-76
2021/09/16 04:41:23;;;;;;;0.40;0.20;;;17.00;99.90;;;;;;5032144;28;20375;-76
2021/09/16 04:43:48;;;;;;;0.40;0.20;;;16.90;99.90;;;;;;5013793;28;20441;-77
2021/09/16 04:46:14;;;;;;;0.40;0.20;;;16.90;99.90;;;;;;5032115;28;20413;-76
2021/09/16 04:48:40;;;;;;;0.40;0.28;;;17.00;99.90;;;;;;5031108;28;20441;-77
2021/09/16 04:51:06;;;;;;;0.40;0.30;;;16.90;99.90;;;;;;5014376;28;20425;-76
2021/09/16 04:53:31;;;;;;;0.40;0.30;;;16.90;99.90;;;;;;5031752;28;20723;-76
2021/09/16 04:55:57;;;;;;;0.40;0.20;;;16.90;99.90;;;;;;5031320;28;20867;-76
2021/09/16 04:58:23;;;;;;;0.40;0.20;;;16.80;99.90;;;;;;5031813;28;20371;-76
2021/09/16 05:00:49;;;;;;;0.40;0.20;;;16.90;99.90;;;;;;5031158;28;20383;-76
2021/09/16 05:03:15;;;;;;;0.40;0.20;;;16.90;99.90;;;;;;5031693;28;20371;-76
2021/09/16 05:05:40;;;;;;;0.40;0.20;;;16.90;99.90;;;;;;5012157;28;20873;-76
2021/09/16 05:08:06;;;;;;;0.40;0.20;;;16.90;99.90;;;;;;5027383;28;20413;-76
2021/09/16 05:10:32;;;;;;;0.40;0.20;;;16.80;99.90;;;;;;5021271;28;20377;-77
2021/09/16 05:12:58;;;;;;;0.40;0.20;;;16.80;99.90;;;;;;5013963;28;20399;-77
2021/09/16 05:15:23;;;;;;;0.40;0.20;;;16.80;99.90;;;;;;5031817;28;20437;-76
2021/09/16 05:17:49;;;;;;;0.40;0.30;;;16.90;99.90;;;;;;5031029;28;20414;-76
2021/09/16 05:20:15;;;;;;;0.40;0.20;;;16.90;99.90;;;;;;5024769;28;20403;-76
2021/09/16 05:22:41;;;;;;;0.40;0.20;;;16.90;99.90;;;;;;5022284;28;20379;-77
2021/09/16 05:25:07;;;;;;;0.40;0.30;;;16.90;99.90;;;;;;5030940;28;20863;-76
2021/09/16 05:27:32;;;;;;;0.40;0.20;;;16.90;99.90;;;;;;5031292;28;20430;-76
2021/09/16 05:29:58;;;;;;;0.40;0.20;;;16.80;99.90;;;;;;5029942;28;20422;-76
2021/09/16 05:32:27;;;;;;;0.40;0.30;;;16.80;99.90;;;;;;5025187;28;20383;-76
2021/09/16 05:34:54;;;;;;;0.40;0.20;;;16.80;99.90;;;;;;5031199;28;20383;-76
2021/09/16 05:37:20;;;;;;;0.40;0.20;;;16.80;99.90;;;;;;5017172;28;20432;-76
2021/09/16 05:39:45;;;;;;;0.40;0.30;;;16.80;99.90;;;;;;5016717;28;20391;-76
2021/09/16 05:42:11;;;;;;;0.40;0.20;;;16.80;99.90;;;;;;5035069;28;20448;-76
2021/09/16 05:44:36;;;;;;;0.40;0.20;;;16.90;99.90;;;;;;5035268;28;20383;-76
2021/09/16 05:47:02;;;;;;;0.40;0.30;;;17.00;99.90;;;;;;5034200;28;20810;-76
2021/09/16 05:49:28;;;;;;;0.40;0.20;;;17.00;99.90;;;;;;5034765;28;20376;-75
2021/09/16 05:51:53;;;;;;;0.40;0.20;;;17.10;99.90;;;;;;5034466;28;20379;-76
2021/09/16 05:54:20;;;;;;;0.40;0.20;;;17.10;99.90;;;;;;5034715;28;20440;-75
2021/09/16 05:56:47;;;;;;;0.40;0.30;;;17.10;99.90;;;;;;5016743;28;20564;-75
2021/09/16 05:59:13;;;;;;;0.40;0.30;;;17.20;99.90;;;;;;5034816;28;20383;-75
2021/09/16 06:01:39;;;;;;;0.40;0.30;;;17.10;99.90;;;;;;5034290;28;20742;-78
2021/09/16 06:04:04;;;;;;;0.40;0.20;;;17.30;99.90;;;;;;5034852;28;20677;-74
2021/09/16 06:06:30;;;;;;;0.40;0.20;;;17.30;99.90;;;;;;5032710;28;20407;-74
2021/09/16 06:08:56;;;;;;;0.40;0.20;;;17.30;99.90;;;;;;5014359;28;20385;-74
2021/09/16 06:11:21;;;;;;;0.40;0.20;;;17.30;99.90;;;;;;5014659;28;20435;-74
2021/09/16 06:13:47;;;;;;;0.40;0.30;;;17.40;99.90;;;;;;5014304;28;20404;-75
2021/09/16 06:16:13;;;;;;;0.40;0.30;;;17.30;99.90;;;;;;5014837;28;20396;-74
2021/09/16 06:18:38;;;;;;;0.40;0.30;;;17.40;99.90;;;;;;5014822;28;20396;-75
2021/09/16 06:21:04;;;;;;;0.40;0.20;;;17.40;99.90;;;;;;5014128;28;20483;-74
2021/09/16 06:23:30;;;;;;;0.40;0.20;;;17.50;99.90;;;;;;5014535;28;20420;-74
2021/09/16 06:25:56;;;;;;;0.40;0.20;;;17.50;99.90;;;;;;5014140;28;20448;-74
2021/09/16 06:28:21;;;;;;;0.40;0.20;;;17.50;99.90;;;;;;5014713;28;20385;-74
2021/09/16 06:30:47;;;;;;;0.40;0.20;;;17.60;99.90;;;;;;4996359;28;20396;-73
2021/09/16 06:33:14;;;;;;;0.40;0.20;;;17.50;99.90;;;;;;5014592;28;20381;-73
2021/09/16 06:35:40;;;;;;;0.40;0.20;;;17.50;99.90;;;;;;5014633;28;20791;-74
2021/09/16 06:38:06;;;;;;;0.40;0.30;;;17.60;99.90;;;;;;5014523;28;20389;-73
2021/09/16 06:40:33;;;;;;;0.40;0.30;;;17.70;99.90;;;;;;5014409;28;20631;-73
2021/09/16 06:43:01;;;;;;;0.40;0.20;;;17.60;99.90;;;;;;5014166;28;20397;-73
2021/09/16 06:45:27;;;;;;;0.40;0.20;;;17.60;99.90;;;;;;5014072;28;20420;-73
2021/09/16 06:47:52;;;;;;;0.40;0.30;;;17.70;99.90;;;;;;5013564;28;20419;-73
2021/09/16 06:50:18;;;;;;;0.40;0.20;;;17.70;99.90;;;;;;5014127;28;20396;-73
2021/09/16 06:52:44;;;;;;;0.40;0.20;;;17.90;99.90;;;;;;5013836;28;20753;-73
2021/09/16 06:55:09;;;;;;;0.40;0.20;;;18.00;99.90;;;;;;5013938;28;20857;-73
2021/09/16 06:57:35;;;;;;;0.40;0.20;;;18.00;99.90;;;;;;5014181;28;20384;-73
2021/09/16 07:00:01;;;;;;;0.40;0.30;;;18.10;99.90;;;;;;5012518;28;20869;-73
2021/09/16 07:02:26;;;;;;;0.40;0.20;;;18.30;99.90;;;;;;5013718;28;20377;-73
2021/09/16 07:04:52;;;;;;;0.40;0.20;;;18.30;99.90;;;;;;5013253;28;20456;-73
2021/09/16 07:07:18;;;;;;;0.40;0.20;;;18.40;99.90;;;;;;5021964;28;20397;-73
2021/09/16 07:09:44;;;;;;;0.40;0.30;;;18.40;99.90;;;;;;5032894;28;20371;-74
2021/09/16 07:12:09;;;;;;;0.40;0.20;;;18.50;99.90;;;;;;5033384;28;20410;-73
2021/09/16 07:14:35;;;;;;;0.40;0.30;;;18.50;99.90;;;;;;5033484;28;20816;-73
2021/09/16 07:17:01;;;;;;;0.40;0.23;;;18.50;99.90;;;;;;5032570;28;20394;-73
2021/09/16 07:19:27;;;;;;;0.40;0.20;;;18.50;99.90;;;;;;5033428;28;20383;-73
2021/09/16 07:21:54;;;;;;;0.40;0.30;;;18.50;99.90;;;;;;5032710;28;20391;-74
2021/09/16 07:24:20;;;;;;;0.40;0.20;;;18.50;99.90;;;;;;5033445;28;20375;-73
2021/09/16 07:26:50;;;;;;;0.40;0.20;;;18.40;99.90;;;;;;5032553;28;20406;-74
2021/09/16 07:29:25;;;;;;;0.40;0.20;;;18.40;99.90;;;;;;5033202;28;20380;-74
2021/09/16 07:31:52;;;;;;;0.40;0.30;;;18.30;99.90;;;;;;5032969;28;20379;-74
2021/09/16 07:34:19;;;;;;;0.40;0.20;;;18.30;99.90;;;;;;5033179;28;20383;-73
2021/09/16 07:36:45;;;;;;;0.40;0.30;;;18.30;99.90;;;;;;5032798;28;20391;-77
2021/09/16 07:39:12;;;;;;;0.40;0.20;;;18.30;99.90;;;;;;5033315;28;20391;-73
2021/09/16 07:41:38;;;;;;;0.40;0.30;;;18.20;99.90;;;;;;5032900;28;20385;-74
2021/09/16 07:44:04;;;;;;;0.40;0.20;;;18.20;99.90;;;;;;5032303;28;20923;-74
2021/09/16 07:46:30;;;;;;;0.40;0.20;;;18.20;99.90;;;;;;5032986;28;20413;-74
2021/09/16 07:48:57;;;;;;;0.40;0.20;;;18.20;99.90;;;;;;5032172;28;20882;-71
2021/09/16 07:51:24;;;;;;;0.40;0.30;;;18.20;99.90;;;;;;5032740;28;20469;-72
2021/09/16 07:53:49;;;;;;;0.40;0.20;;;18.10;99.90;;;;;;5032034;28;20391;-73
2021/09/16 07:56:15;;;;;;;0.40;0.20;;;18.00;99.90;;;;;;5032955;28;20433;-71
2021/09/16 07:58:44;;;;;;;0.40;0.20;;;18.00;99.90;;;;;;5032165;28;20522;-70
2021/09/16 08:01:10;;;;;;;0.40;0.20;;;18.00;99.90;;;;;;5031871;28;20387;-68
2021/09/16 08:03:36;;;;;;;0.40;0.20;;;17.90;99.90;;;;;;5032660;28;20398;-67
2021/09/16 08:06:02;;;;;;;0.40;0.20;;;17.80;99.90;;;;;;5031980;28;20451;-68
2021/09/16 08:08:28;;;;;;;0.40;0.30;;;17.40;99.90;;;;;;5014473;28;20471;-69
2021/09/16 08:10:54;;;;;;;0.40;0.20;;;17.30;99.90;;;;;;5011822;28;20424;-68
2021/09/16 08:13:19;;;;;;;0.40;0.30;;;17.30;99.90;;;;;;5012678;28;20881;-69
2021/09/16 08:15:45;;;;;;;0.40;0.20;;;17.10;99.90;;;;;;5012517;28;20423;-69
2021/09/16 08:18:11;;;;;;;0.40;0.30;;;17.10;99.90;;;;;;5011995;28;20393;-69
2021/09/16 08:20:41;;;;;;;0.40;0.20;;;17.00;99.90;;;;;;5012499;28;20431;-68
2021/09/16 08:23:07;;;;;;;0.40;0.20;;;16.90;99.90;;;;;;5012096;28;20722;-69
2021/09/16 08:25:33;;;;;;;0.40;0.20;;;16.80;99.90;;;;;;5012555;28;20428;-69
2021/09/16 08:27:59;;;;;;;0.40;0.20;;;16.90;99.90;;;;;;5011721;28;20869;-69
2021/09/16 08:30:25;;;;;;;0.40;0.20;;;16.80;99.90;;;;;;5012168;28;20607;-68
2021/09/16 08:32:51;;;;;;;0.40;0.20;;;16.80;99.90;;;;;;5011851;28;20379;-69
2021/09/16 08:35:17;;;;;;;0.40;0.30;;;16.80;99.90;;;;;;5012274;28;20405;-69
2021/09/16 08:37:43;;;;;;;0.40;0.20;;;16.70;99.90;;;;;;5012314;28;20721;-69
2021/09/16 08:40:09;;;;;;;0.40;0.20;;;16.70;99.90;;;;;;5011703;28;21304;-69
2021/09/16 08:42:40;;;;;;;0.40;0.20;;;16.70;99.90;;;;;;5012292;28;20436;-69
2021/09/16 08:45:08;;;;;;;0.40;0.20;;;16.70;99.90;;;;;;5011693;28;20397;-69
2021/09/16 08:47:37;;;;;;;0.40;0.30;;;16.70;99.90;;;;;;5012233;28;20456;-68
2021/09/16 08:50:03;;;;;;;0.40;0.20;;;16.70;99.90;;;;;;5011334;28;20415;-69
2021/09/16 08:52:30;;;;;;;0.40;0.30;;;16.70;99.90;;;;;;5011800;28;20913;-69
2021/09/16 08:54:57;;;;;;;0.40;0.20;;;16.70;99.90;;;;;;5011436;28;20471;-69
2021/09/16 08:57:24;;;;;;;0.40;0.20;;;16.70;99.90;;;;;;5012029;28;20385;-69
2021/09/16 08:59:50;;;;;;;0.40;0.30;;;16.70;99.90;;;;;;5011425;28;20389;-70
2021/09/16 09:02:15;;;;;;;0.40;0.30;;;16.80;99.90;;;;;;4994389;28;20408;-69
2021/09/16 09:04:41;;;;;;;0.40;0.20;;;16.80;99.90;;;;;;4994415;28;20437;-69
2021/09/16 09:07:07;;;;;;;0.40;0.20;;;16.70;99.90;;;;;;5018095;28;20383;-69
2021/09/16 09:09:33;;;;;;;0.40;0.20;;;16.80;99.90;;;;;;5030535;28;20387;-69
2021/09/16 09:12:15;;;;;;;0.40;0.20;;;16.80;99.90;;;;;;5030419;28;20728;-69
2021/09/16 09:14:47;;;;;;;0.40;0.20;;;16.90;99.90;;;;;;5031255;28;20771;-69
2021/09/16 09:17:19;;;;;;;0.40;0.20;;;16.90;99.90;;;;;;5030870;28;20383;-69
2021/09/16 09:19:46;;;;;;;0.40;0.20;;;17.00;99.90;;;;;;5031128;28;20883;-69
2021/09/16 09:22:12;;;;;;;0.40;0.20;;;17.00;99.90;;;;;;5031051;28;20786;-69
2021/09/16 09:24:41;;;;;;;0.40;0.20;;;17.00;99.90;;;;;;5031416;28;20383;-69
2021/09/16 09:27:28;;;;;;;0.40;0.30;;;17.00;99.90;;;;;;5030661;28;20894;-69
2021/09/16 09:30:33;;;;;;;0.40;0.30;;;17.10;99.90;;;;;;5030616;28;20391;-69
2021/09/16 09:33:01;;;;;;;0.40;0.20;;;17.10;99.90;;;;;;4976098;28;20399;-69
2021/09/16 09:35:42;;;;;;;0.40;0.30;;;17.20;99.90;;;;;;5031216;28;20472;-69
2021/09/16 09:38:17;;;;;;;0.40;0.20;;;17.30;99.90;;;;;;5012943;28;20862;-69
2021/09/16 09:40:45;;;;;;;0.40;0.30;;;17.40;99.90;;;;;;5031397;28;20394;-69
2021/09/16 09:43:31;;;;;;;0.40;0.20;;;17.40;99.90;;;;;;5030212;28;20521;-70
2021/09/16 09:46:09;;;;;;;0.40;0.30;;;17.40;99.90;;;;;;5030711;28;20402;-70
2021/09/16 09:48:38;;;;;;;0.40;0.30;;;17.60;99.90;;;;;;5031006;28;20725;-70
2021/09/16 09:51:06;;;;;;;0.40;0.20;;;17.60;99.90;;;;;;5030449;28;20517;-70
2021/09/16 09:53:43;;;;;;;0.40;0.20;;;17.60;99.90;;;;;;5030928;28;20473;-70
2021/09/16 09:56:19;;;;;;;0.40;0.30;;;17.60;99.90;;;;;;5030467;28;20406;-70
2021/09/16 09:58:46;;;;;;;0.40;0.30;;;17.60;99.90;;;;;;5030937;28;20391;-69
2021/09/16 10:01:34;;;;;;;0.40;0.30;;;17.60;99.90;;;;;;5030392;28;20417;-69
2021/09/16 10:04:27;;;;;;;0.40;0.20;;;17.70;99.90;;;;;;5030311;28;20380;-69
2021/09/16 10:06:54;;;;;;;0.40;0.30;;;17.80;99.90;;;;;;5026016;28;20455;-69
2021/09/16 10:09:21;;;;;;;0.40;0.30;;;17.80;99.90;;;;;;5011068;28;20387;-69
2021/09/16 10:11:50;;;;;;;0.40;0.20;;;17.90;99.90;;;;;;5011195;28;20745;-70
2021/09/16 10:14:17;;;;;;;0.40;0.20;;;17.90;99.90;;;;;;5010624;28;20468;-70
2021/09/16 10:16:43;;;;;;;0.40;0.30;;;18.00;99.90;;;;;;5011119;28;20447;-70
2021/09/16 10:19:10;;;;;;;0.40;0.20;;;18.10;99.90;;;;;;5010571;28;20389;-70
2021/09/16 10:21:37;;;;;;;0.40;0.20;;;18.10;99.90;;;;;;5013246;28;20420;-70
2021/09/16 10:24:04;;;;;;;0.40;0.30;;;18.10;99.90;;;;;;5014432;28;20389;-70
2021/09/16 10:26:40;;;;;;;0.40;0.30;;;18.20;99.90;;;;;;5014925;28;20432;-70
2021/09/16 10:29:26;;;;;;;0.40;0.20;;;18.30;99.90;;;;;;5013915;28;20392;-71
2021/09/16 10:31:52;;;;;;;0.40;0.20;;;18.40;99.90;;;;;;5006892;28;20397;-71
2021/09/16 10:34:44;;;;;;;0.40;0.30;;;18.40;99.90;;;;;;5014051;28;20377;-71
2021/09/16 10:37:10;;;;;;;0.40;0.20;;;18.60;99.90;;;;;;5013774;28;20451;-70
2021/09/16 10:39:40;;;;;;;0.40;0.20;;;18.70;99.90;;;;;;5014721;28;20381;-70
2021/09/16 10:42:07;;;;;;;0.40;0.20;;;18.80;99.90;;;;;;5013914;28;20471;-71
2021/09/16 10:44:34;;;;;;;0.40;0.20;;;19.00;99.90;;;;;;5014194;28;20883;-71
2021/09/16 10:47:13;;;;;;;0.40;0.30;;;19.00;99.90;;;;;;5013775;28;20385;-71
2021/09/16 10:49:39;;;;;;;0.40;0.20;;;19.10;99.90;;;;;;5014498;28;20388;-71
2021/09/16 10:52:10;;;;;;;0.40;0.28;;;19.10;99.90;;;;;;5013649;28;20385;-71
2021/09/16 10:54:56;;;;;;;0.40;0.20;;;19.10;99.90;;;;;;5014306;28;20426;-71
2021/09/16 10:57:22;;;;;;;0.40;0.30;;;19.20;99.90;;;;;;5014130;28;20480;-72
2021/09/16 10:59:47;;;;;;;0.40;0.30;;;19.10;99.90;;;;;;5014193;28;20486;-72
2021/09/16 11:02:17;;;;;;;0.40;0.20;;;19.00;99.90;;;;;;5013442;28;20428;-72
2021/09/16 11:04:57;;;;;;;0.40;0.20;;;18.90;99.90;;;;;;5014254;28;20381;-71
2021/09/16 11:07:32;;;;;;;0.40;0.20;;;18.80;99.90;;;;;;5013887;28;20458;-71
2021/09/16 11:10:22;;;;;;;0.40;0.20;;;18.90;99.90;;;;;;5013439;28;20853;-73
2021/09/16 11:12:55;;;;;;;0.40;0.20;;;18.90;99.90;;;;;;5013546;28;20535;-72
2021/09/16 11:15:35;;;;;;;0.40;0.30;;;19.00;99.90;;;;;;5013317;28;20444;-72
2021/09/16 11:18:04;;;;;;;0.40;0.20;;;19.20;99.90;;;;;;5013227;28;20389;-72
2021/09/16 11:20:31;;;;;;;0.40;0.20;;;19.30;99.90;;;;;;5020805;28;20398;-72
2021/09/16 11:22:57;;;;;;;0.40;0.20;;;19.40;99.90;;;;;;5032988;28;20386;-72
2021/09/16 11:25:24;;;;;;;0.40;0.20;;;19.30;99.90;;;;;;5032035;28;20755;-72
2021/09/16 11:27:54;;;;;;;0.40;0.20;;;19.20;99.90;;;;;;5026470;28;20391;-72
2021/09/16 11:30:21;;;;;;;0.40;0.20;;;19.10;99.90;;;;;;5023771;28;20427;-73
2021/09/16 11:32:47;;;;;;;0.40;0.20;;;18.90;99.90;;;;;;5024656;28;20453;-73
2021/09/16 11:35:15;;;;;;;0.40;0.20;;;18.80;99.90;;;;;;5020778;28;20502;-73
2021/09/16 11:37:51;;;;;;;0.40;0.20;;;18.80;99.90;;;;;;5015921;28;20388;-73
2021/09/16 11:40:31;;;;;;;0.40;0.30;;;18.70;99.90;;;;;;5012906;28;20956;-73
2021/09/16 11:42:59;;;;;;;0.40;0.20;;;18.60;99.90;;;;;;5013537;28;20415;-73
2021/09/16 11:45:44;;;;;;;0.40;0.20;;;18.40;99.90;;;;;;5013573;28;20428;-74
2021/09/16 11:48:22;;;;;;;0.40;0.30;;;18.50;99.90;;;;;;5023910;28;20809;-72
2021/09/16 11:50:53;;;;;;;0.52;0.38;;;18.50;99.90;;;;;;5013222;28;20385;-72
2021/09/16 11:53:23;;;;;;;0.40;0.30;;;18.60;99.90;;;;;;5012642;28;20480;-72
2021/09/16 11:56:00;;;;;;;0.40;0.30;;;18.80;99.90;;;;;;5013128;28;20780;-72
2021/09/16 11:58:29;;;;;;;0.40;0.30;;;19.00;99.90;;;;;;5013058;28;20389;-72
2021/09/16 12:01:05;;;;;;;0.40;0.20;;;19.20;99.90;;;;;;5012884;28;20431;-73
2021/09/16 12:03:57;;;;;;;0.40;0.20;;;19.10;99.90;;;;;;5013086;28;20389;-73
2021/09/16 12:06:23;;;;;;;0.40;0.30;;;19.00;99.90;;;;;;5012978;28;20796;-72
2021/09/16 12:08:51;;;;;;;0.40;0.20;;;18.90;99.90;;;;;;5032386;28;20379;-72
2021/09/16 12:11:28;;;;;;;0.40;0.30;;;18.70;99.90;;;;;;5014261;28;20732;-72
2021/09/16 12:13:59;;;;;;;0.40;0.30;;;18.60;99.90;;;;;;5032661;28;20871;-70
2021/09/16 12:16:28;;;;;;;0.40;0.30;;;18.60;99.90;;;;;;5031850;28;20457;-71
2021/09/16 12:18:56;;;;;;;0.40;0.30;;;18.70;99.90;;;;;;5032142;28;20466;-71
2021/09/16 12:21:22;;;;;;;0.40;0.20;;;18.60;99.90;;;;;;5031591;28;20394;-71
2021/09/16 12:23:50;;;;;;;0.40;0.30;;;18.50;99.90;;;;;;5032307;28;20383;-71
2021/09/16 12:26:19;;;;;;;0.40;0.20;;;18.50;99.90;;;;;;5031765;28;20803;-71
2021/09/16 12:28:49;;;;;;;0.40;0.20;;;18.60;99.90;;;;;;5032174;28;20395;-72
2021/09/16 12:31:15;;;;;;;0.40;0.20;;;18.70;99.90;;;;;;5031659;28;20474;-72
2021/09/16 12:33:40;;;;;;;0.40;0.30;;;18.70;99.90;;;;;;5031896;28;20462;-72
2021/09/16 12:36:07;;;;;;;0.40;0.20;;;18.70;99.90;;;;;;5031466;28;20411;-72
2021/09/16 12:38:42;;;;;;;0.40;0.30;;;18.50;99.90;;;;;;5032401;28;20395;-72
2021/09/16 12:41:24;;;;;;;0.40;0.22;;;18.50;99.90;;;;;;5031531;28;20462;-72
2021/09/16 12:43:57;;;;;;;0.40;0.30;;;18.50;99.90;;;;;;5014288;28;20456;-73
2021/09/16 12:46:24;;;;;;;0.40;0.20;;;18.60;99.90;;;;;;5031385;28;20640;-72
2021/09/16 12:48:49;;;;;;;0.40;0.20;;;18.60;99.90;;;;;;5031463;28;20387;-72
2021/09/16 12:51:19;;;;;;;0.40;0.30;;;18.60;99.90;;;;;;5019079;28;20400;-72